Time;durP1;ratioP1;P1;durP2;ratioP2;P2;SDS_P1;SDS_P2;PMS_P1;PMS_P2;Temp;Humidity;BMP_temperature;BMP_pressure;BME280_temperature;BME280_humidity;BME280_pressure;Samples;Min_cycle;Max_cycle;Signal;HPM_P1;HPM_P2
2023/05/06 00:00:24;;;;;;;6.28;5.68;;;;;;;15.19;56.16;99560.28;5034353;28;20071;-77
2023/05/06 00:02:50;;;;;;;7.50;6.80;;;;;;;15.02;56.03;99526.38;5034365;28;20554;-76
2023/05/06 00:05:17;;;;;;;6.88;5.68;;;;;;;15.23;55.88;99566.00;5034282;28;20032;-76
2023/05/06 00:07:45;;;;;;;5.93;5.32;;;;;;;14.78;56.02;99488.75;5034219;28;20025;-76
2023/05/06 00:10:10;;;;;;;6.50;5.90;;;;;;;14.69;56.04;99473.22;5034381;28;20021;-78
2023/05/06 00:12:35;;;;;;;6.40;5.60;;;;;;;15.15;56.14;99556.41;5034266;28;20028;-77
2023/05/06 00:15:01;;;;;;;6.75;6.05;;;;;;;15.14;56.17;99560.09;5034180;28;20063;-77
2023/05/06 00:17:26;;;;;;;6.88;6.10;;;;;;;14.69;56.15;99482.00;5033928;28;20017;-77
2023/05/06 00:19:52;;;;;;;6.57;5.53;;;;;;;15.15;55.92;99561.72;5033880;28;20076;-77
2023/05/06 00:22:17;;;;;;;6.03;5.32;;;;;;;14.90;56.17;99519.03;5033935;28;20072;-76
2023/05/06 00:24:43;;;;;;;7.53;5.57;;;;;;;15.12;56.22;99575.44;5032570;28;20095;-77
2023/05/06 00:27:08;;;;;;;5.80;5.30;;;;;;;14.93;56.05;99529.25;5033717;28;20052;-76
2023/05/06 00:29:34;;;;;;;6.05;5.45;;;;;;;15.07;56.20;99550.50;5032627;28;20061;-78
2023/05/06 00:31:59;;;;;;;7.78;5.82;;;;;;;14.55;56.10;99467.09;5033508;28;20078;-76
2023/05/06 00:34:25;;;;;;;5.85;5.30;;;;;;;14.60;56.08;99480.59;5033718;28;20096;-78
2023/05/06 00:36:50;;;;;;;6.90;6.20;;;;;;;14.86;56.08;99514.28;5033747;28;20021;-77
2023/05/06 00:39:16;;;;;;;6.35;5.75;;;;;;;14.53;56.31;99467.31;5033415;28;20524;-76
2023/05/06 00:41:41;;;;;;;5.70;5.20;;;;;;;14.99;56.30;99537.41;5033456;28;20032;-78
2023/05/06 00:44:07;;;;;;;8.40;5.80;;;;;;;15.08;56.09;99557.44;5032214;28;20017;-77
2023/05/06 00:46:32;;;;;;;6.55;5.68;;;;;;;15.09;56.08;99559.91;5032246;28;20018;-77
2023/05/06 00:48:58;;;;;;;5.60;5.20;;;;;;;15.12;56.30;99548.03;5033410;28;20105;-76
2023/05/06 00:51:25;;;;;;;6.63;5.72;;;;;;;15.14;56.30;99552.13;5032047;28;20093;-77
2023/05/06 00:53:50;;;;;;;6.25;5.75;;;;;;;15.12;56.31;99551.50;5033125;28;20100;-78
2023/05/06 00:56:16;;;;;;;8.23;5.72;;;;;;;14.85;56.00;99510.00;5032454;28;20102;-77
2023/05/06 00:58:43;;;;;;;6.35;5.75;;;;;;;15.13;56.17;99545.16;5033305;28;20021;-77
2023/05/06 01:01:09;;;;;;;7.80;6.40;;;;;;;14.59;56.31;99485.09;5033278;28;20059;-76
2023/05/06 01:03:34;;;;;;;6.90;6.20;;;;;;;15.02;56.39;99523.69;5033201;28;20061;-77
2023/05/06 01:06:22;;;;;;;5.85;5.35;;;;;;;15.10;55.96;99547.41;5033058;28;20185;-76
2023/05/06 01:09:25;;;;;;;7.50;5.50;;;;;;;15.08;56.33;99546.81;5032745;28;20021;-76
2023/05/06 01:12:01;;;;;;;5.63;4.80;;;;;;;14.81;56.41;99514.91;5032749;28;20063;-77
2023/05/06 01:14:26;;;;;;;5.38;4.88;;;;;;;15.07;56.20;99539.84;5032731;28;20021;-76
2023/05/06 01:16:57;;;;;;;8.30;5.15;;;;;;;15.09;55.89;99535.97;5032825;28;20017;-78
2023/05/06 01:19:36;;;;;;;5.30;4.80;;;;;;;14.54;55.87;99452.19;5031486;28;20013;-78
2023/05/06 01:22:04;;;;;;;5.32;4.82;;;;;;;15.11;55.95;99536.56;5031686;28;20422;-77
2023/05/06 01:24:37;;;;;;;5.20;4.50;;;;;;;15.05;55.66;99520.63;5032723;28;20450;-76
2023/05/06 01:27:04;;;;;;;4.60;4.20;;;;;;;15.05;55.83;99517.97;5032576;28;20599;-77
2023/05/06 01:29:29;;;;;;;5.68;4.80;;;;;;;14.44;55.76;99414.59;5032588;28;20510;-77
2023/05/06 01:32:00;;;;;;;5.57;4.35;;;;;;;14.62;55.71;99450.13;5031269;28;20024;-76
2023/05/06 01:34:45;;;;;;;5.00;4.35;;;;;;;15.00;55.51;99497.31;5032397;28;20029;-77
2023/05/06 01:37:19;;;;;;;5.93;5.07;;;;;;;15.13;55.89;99520.41;5032281;28;20605;-76
2023/05/06 01:39:45;;;;;;;5.40;4.47;;;;;;;14.76;55.93;99455.41;5032200;28;20029;-77
2023/05/06 01:42:12;;;;;;;6.03;4.72;;;;;;;14.86;55.74;99461.97;5032343;28;20021;-77
2023/05/06 01:44:38;;;;;;;5.05;4.53;;;;;;;15.03;55.59;99488.13;5032148;28;20402;-77
2023/05/06 01:47:06;;;;;;;6.80;4.63;;;;;;;14.62;55.37;99412.09;5030975;28;20059;-77
2023/05/06 01:49:31;;;;;;;4.95;4.50;;;;;;;15.29;55.24;99519.16;5032204;28;20013;-76
2023/05/06 01:51:57;;;;;;;4.53;4.13;;;;;;;14.89;55.24;99452.75;5032328;28;20116;-76
2023/05/06 01:54:22;;;;;;;6.10;4.70;;;;;;;14.90;55.35;99457.06;5031944;28;20521;-76
2023/05/06 01:56:48;;;;;;;4.57;4.18;;;;;;;15.06;55.41;99477.88;5030665;28;20502;-77
2023/05/06 01:59:13;;;;;;;5.03;4.05;;;;;;;15.12;54.98;99485.03;5032099;28;20049;-76
2023/05/06 02:01:39;;;;;;;6.03;4.57;;;;;;;14.77;55.28;99414.53;5032056;28;20078;-76
2023/05/06 02:04:04;;;;;;;4.90;4.07;;;;;;;14.87;55.29;99431.72;5032033;28;20021;-77
2023/05/06 02:06:30;;;;;;;5.88;4.68;;;;;;;14.82;55.21;99428.00;5031316;28;20029;-76
2023/05/06 02:08:55;;;;;;;5.47;4.70;;;;;;;14.91;55.53;99456.84;5031831;28;20387;-76
2023/05/06 02:11:21;;;;;;;5.70;4.35;;;;;;;15.41;55.41;99515.63;5032005;28;20092;-76
2023/05/06 02:13:46;;;;;;;5.05;4.55;;;;;;;15.08;55.51;99469.69;5032012;28;20494;-77
2023/05/06 02:16:12;;;;;;;5.22;4.72;;;;;;;15.04;55.11;99465.81;5031891;28;20029;-76
2023/05/06 02:18:37;;;;;;;4.82;4.43;;;;;;;15.16;55.58;99488.06;5031645;28;20097;-76
2023/05/06 02:21:02;;;;;;;5.53;4.57;;;;;;;15.26;55.41;99502.56;5031541;28;20401;-77
2023/05/06 02:23:28;;;;;;;5.22;4.72;;;;;;;15.33;55.28;99512.38;5031622;28;20569;-76
2023/05/06 02:25:54;;;;;;;6.22;5.03;;;;;;;15.23;55.33;99502.19;5031775;28;20025;-77
2023/05/06 02:28:19;;;;;;;5.75;5.15;;;;;;;14.69;55.67;99434.16;5031603;28;20534;-76
2023/05/06 02:30:45;;;;;;;5.82;4.80;;;;;;;14.81;55.46;99444.97;5030125;28;20482;-77
2023/05/06 02:33:10;;;;;;;5.70;4.70;;;;;;;14.94;55.72;99460.94;5030314;28;20029;-77
2023/05/06 02:35:36;;;;;;;5.93;5.30;;;;;;;14.98;55.42;99471.97;5031580;28;20021;-77
2023/05/06 02:38:01;;;;;;;5.78;5.18;;;;;;;15.11;55.58;99496.69;5031562;28;20033;-76
2023/05/06 02:40:26;;;;;;;6.97;5.70;;;;;;;15.27;55.67;99522.81;5031456;28;20486;-77
2023/05/06 02:42:52;;;;;;;5.90;4.95;;;;;;;15.03;55.48;99480.13;5030060;28;20155;-76
2023/05/06 02:45:17;;;;;;;6.35;5.35;;;;;;;14.84;55.43;99468.50;5031601;28;20022;-77
2023/05/06 02:47:43;;;;;;;6.30;5.25;;;;;;;15.09;55.62;99497.91;5031456;28;20486;-77
2023/05/06 02:50:08;;;;;;;6.28;5.03;;;;;;;14.69;55.92;99444.81;5030130;28;20025;-76
2023/05/06 02:52:34;;;;;;;6.63;5.72;;;;;;;14.74;55.76;99455.63;5031310;28;20052;-77
2023/05/06 02:55:00;;;;;;;8.35;6.00;;;;;;;15.18;55.68;99525.91;5031477;28;20062;-77
2023/05/06 02:57:26;;;;;;;6.05;5.53;;;;;;;15.04;56.01;99503.84;5031242;28;20026;-77
2023/05/06 02:59:51;;;;;;;6.82;5.20;;;;;;;15.12;56.04;99527.56;5031213;28;20563;-76
2023/05/06 03:02:16;;;;;;;7.75;5.47;;;;;;;15.11;55.61;99528.59;5031222;28;20026;-76
2023/05/06 03:04:42;;;;;;;5.88;5.00;;;;;;;14.70;56.08;99465.03;5031222;28;20409;-77
2023/05/06 03:07:07;;;;;;;5.53;4.90;;;;;;;14.76;55.82;99482.81;5029853;28;20522;-76
2023/05/06 03:09:33;;;;;;;7.55;5.30;;;;;;;14.94;56.29;99508.78;5031123;28;20062;-77
2023/05/06 03:11:58;;;;;;;7.43;5.97;;;;;;;14.65;56.20;99464.84;5031168;28;20483;-76
2023/05/06 03:14:23;;;;;;;6.82;5.70;;;;;;;14.86;56.01;99504.50;5031093;28;20025;-77
2023/05/06 03:16:49;;;;;;;7.15;6.45;;;;;;;14.59;56.32;99463.00;5031045;28;20414;-77
2023/05/06 03:19:14;;;;;;;6.90;6.20;;;;;;;14.77;56.47;99487.09;5034126;28;20018;-77
2023/05/06 03:21:40;;;;;;;6.32;5.70;;;;;;;14.73;56.57;99471.78;5034815;28;20029;-77
2023/05/06 03:24:05;;;;;;;6.60;5.75;;;;;;;15.13;56.27;99536.38;5035081;28;20030;-77
2023/05/06 03:26:31;;;;;;;6.07;5.47;;;;;;;14.54;56.29;99452.19;5035012;28;20486;-77
2023/05/06 03:28:56;;;;;;;6.40;5.68;;;;;;;15.11;56.69;99541.06;5034528;28;20529;-77
2023/05/06 03:31:22;;;;;;;6.18;5.57;;;;;;;14.70;56.46;99472.19;5034766;28;20026;-77
2023/05/06 03:33:47;;;;;;;6.55;5.60;;;;;;;14.79;56.59;99498.34;5034680;28;20028;-77
2023/05/06 03:36:15;;;;;;;7.38;6.00;;;;;;;14.84;56.78;99509.19;5034799;28;20079;-78
2023/05/06 03:38:40;;;;;;;6.65;5.95;;;;;;;14.79;56.86;99510.81;5034561;28;20090;-77
2023/05/06 03:41:06;;;;;;;6.88;5.70;;;;;;;14.80;57.10;99518.59;5034443;28;20482;-76
2023/05/06 03:43:31;;;;;;;6.20;5.60;;;;;;;14.40;57.05;99456.66;5034527;28;20071;-75
2023/05/06 03:45:57;;;;;;;8.30;6.60;;;;;;;14.82;57.08;99515.72;5034613;28;20451;-75
2023/05/06 03:48:23;;;;;;;7.38;6.47;;;;;;;14.90;57.35;99534.16;5034434;28;20021;-75
2023/05/06 03:50:48;;;;;;;8.20;6.93;;;;;;;14.93;57.56;99561.13;5034322;28;20156;-75
2023/05/06 03:53:14;;;;;;;8.52;6.80;;;;;;;14.97;57.61;99550.91;5034239;28;20071;-77
2023/05/06 03:55:39;;;;;;;11.48;7.28;;;;;;;14.96;57.57;99559.91;5034481;28;20027;-75
2023/05/06 03:58:05;;;;;;;9.02;6.95;;;;;;;14.67;57.80;99512.47;5034410;28;20025;-77
2023/05/06 04:00:30;;;;;;;8.65;6.95;;;;;;;14.71;57.68;99527.78;5034459;28;20096;-76
2023/05/06 04:02:56;;;;;;;7.63;6.88;;;;;;;14.82;58.09;99539.66;5038348;28;20032;-76
2023/05/06 04:05:21;;;;;;;7.38;6.68;;;;;;;14.60;57.94;99517.78;5039522;28;20060;-75
2023/05/06 04:07:47;;;;;;;10.15;7.35;;;;;;;14.82;58.14;99545.78;5034599;28;20059;-75
2023/05/06 04:10:12;;;;;;;8.45;7.30;;;;;;;14.73;58.24;99549.66;5034745;28;20021;-75
2023/05/06 04:12:37;;;;;;;8.25;7.30;;;;;;;14.99;58.48;99575.44;5033268;28;20088;-76
2023/05/06 04:15:03;;;;;;;10.30;7.63;;;;;;;14.65;58.93;99525.97;5034174;28;20025;-75
2023/05/06 04:17:29;;;;;;;11.73;8.20;;;;;;;14.47;58.64;99488.56;5033976;28;20025;-75
2023/05/06 04:19:55;;;;;;;9.88;7.85;;;;;;;14.49;58.82;99503.28;5033988;28;20027;-76
2023/05/06 04:22:20;;;;;;;9.98;8.40;;;;;;;14.59;58.92;99513.50;5033945;28;20418;-76
2023/05/06 04:24:46;;;;;;;9.50;8.55;;;;;;;14.98;59.17;99570.34;5033995;28;20219;-76
2023/05/06 04:27:11;;;;;;;9.85;8.27;;;;;;;14.52;59.13;99486.09;5033706;28;20091;-77
2023/05/06 04:29:37;;;;;;;10.25;8.60;;;;;;;14.84;59.27;99540.25;5031473;28;20022;-75
2023/05/06 04:32:03;;;;;;;9.50;7.80;;;;;;;15.10;59.31;99579.34;5033745;28;20030;-76
2023/05/06 04:34:29;;;;;;;11.93;9.27;;;;;;;14.91;59.33;99555.22;5033905;28;20502;-76
2023/05/06 04:36:55;;;;;;;12.80;10.07;;;;;;;14.50;58.84;99482.84;5032906;28;20025;-76
2023/05/06 04:39:20;;;;;;;10.65;9.43;;;;;;;15.16;58.94;99575.84;5033589;28;20018;-76
2023/05/06 04:41:46;;;;;;;10.57;9.20;;;;;;;15.17;59.36;99588.94;5032177;28;20063;-75
2023/05/06 04:44:12;;;;;;;9.93;8.93;;;;;;;15.18;59.17;99582.59;5032218;28;20100;-76
2023/05/06 04:46:37;;;;;;;10.13;8.48;;;;;;;14.53;59.24;99488.56;5033477;28;20387;-75
2023/05/06 04:49:03;;;;;;;8.75;7.57;;;;;;;15.21;59.18;99590.16;5033376;28;20071;-76
2023/05/06 04:51:28;;;;;;;9.25;8.35;;;;;;;14.80;59.44;99521.25;5033278;28;20025;-76
2023/05/06 04:53:54;;;;;;;9.68;8.55;;;;;;;14.66;59.38;99494.88;5033136;28;20033;-76
2023/05/06 04:56:20;;;;;;;8.80;7.97;;;;;;;15.21;59.43;99592.00;5033165;28;20456;-76
2023/05/06 04:58:45;;;;;;;9.00;7.45;;;;;;;14.82;59.23;99519.19;5033269;28;20510;-76
2023/05/06 05:01:11;;;;;;;9.57;7.50;;;;;;;15.27;59.38;99591.16;5033179;28;20064;-75
2023/05/06 05:03:36;;;;;;;8.80;7.32;;;;;;;15.29;59.36;99590.97;5033151;28;20103;-77
2023/05/06 05:06:02;;;;;;;9.45;6.72;;;;;;;15.27;58.89;99584.00;5033129;28;20432;-77
2023/05/06 05:08:27;;;;;;;7.05;6.20;;;;;;;15.22;58.95;99553.75;5033196;28;20053;-76
2023/05/06 05:10:52;;;;;;;7.90;6.75;;;;;;;15.45;58.63;99590.53;5033027;28;20036;-77
2023/05/06 05:13:18;;;;;;;7.78;6.97;;;;;;;15.15;58.63;99532.47;5031747;28;20029;-76
2023/05/06 05:15:44;;;;;;;8.20;6.50;;;;;;;15.57;58.56;99572.88;5033004;28;20030;-76
2023/05/06 05:18:09;;;;;;;7.90;6.45;;;;;;;15.75;58.51;99607.69;5033031;28;20028;-76
2023/05/06 05:20:35;;;;;;;7.22;6.45;;;;;;;15.40;58.18;99539.78;5032808;28;20021;-77
2023/05/06 05:23:00;;;;;;;7.97;5.85;;;;;;;15.33;57.98;99529.16;5032923;28;20029;-77
2023/05/06 05:25:26;;;;;;;6.45;5.82;;;;;;;15.44;57.80;99522.38;5031271;28;20108;-76
2023/05/06 05:27:51;;;;;;;7.25;6.25;;;;;;;15.99;57.85;99597.34;5032326;28;20045;-77
2023/05/06 05:30:16;;;;;;;6.95;6.25;;;;;;;16.04;57.74;99600.22;5032656;28;20025;-76
2023/05/06 05:32:42;;;;;;;7.38;6.50;;;;;;;15.59;57.74;99530.94;5032562;28;20052;-77
2023/05/06 05:35:10;;;;;;;8.02;6.80;;;;;;;16.06;58.01;99601.63;5032410;28;20033;-76
2023/05/06 05:37:36;;;;;;;6.75;5.88;;;;;;;15.70;57.85;99535.63;5032406;28;20044;-76
2023/05/06 05:40:01;;;;;;;5.93;5.43;;;;;;;16.05;57.61;99605.31;5032274;28;20049;-77
2023/05/06 05:42:27;;;;;;;9.00;5.68;;;;;;;16.10;57.94;99597.50;5032167;28;20025;-76
2023/05/06 05:44:52;;;;;;;7.43;5.88;;;;;;;15.82;57.90;99541.94;5032254;28;20025;-77
2023/05/06 05:47:18;;;;;;;7.68;5.88;;;;;;;16.27;57.68;99619.16;5032162;28;20025;-76
2023/05/06 05:49:43;;;;;;;6.88;5.78;;;;;;;15.77;57.60;99517.78;5032358;28;20027;-76
2023/05/06 05:52:09;;;;;;;8.48;5.80;;;;;;;16.08;57.40;99572.13;5032332;28;20037;-77
2023/05/06 05:54:34;;;;;;;6.20;5.60;;;;;;;16.04;57.20;99553.09;5030827;28;20027;-76
2023/05/06 05:57:00;;;;;;;5.97;5.32;;;;;;;16.09;57.08;99558.59;5032084;28;20116;-76
2023/05/06 05:59:26;;;;;;;6.68;5.45;;;;;;;16.49;56.46;99601.00;5032146;28;20017;-76
2023/05/06 06:01:52;;;;;;;5.93;5.32;;;;;;;16.18;56.55;99543.16;5031216;28;20079;-76
2023/05/06 06:04:17;;;;;;;6.57;5.50;;;;;;;16.73;56.56;99612.78;5032122;28;20026;-76
2023/05/06 06:06:43;;;;;;;7.00;6.30;;;;;;;16.84;56.34;99615.56;5032055;28;20028;-76
2023/05/06 06:09:08;;;;;;;9.88;6.47;;;;;;;16.80;56.21;99597.53;5031827;28;20024;-76
2023/05/06 06:11:34;;;;;;;6.82;6.13;;;;;;;16.88;56.22;99586.59;5031819;28;20030;-77
2023/05/06 06:13:59;;;;;;;6.72;5.53;;;;;;;16.69;55.46;99556.41;5031892;28;20028;-76
2023/05/06 06:16:25;;;;;;;8.07;5.65;;;;;;;17.18;55.06;99607.31;5031939;28;20490;-78
2023/05/06 06:18:51;;;;;;;7.00;6.10;;;;;;;17.23;54.93;99613.63;5031633;28;20029;-77
2023/05/06 06:21:17;;;;;;;6.80;6.10;;;;;;;16.71;54.50;99522.34;5031880;28;20033;-77
2023/05/06 06:23:42;;;;;;;7.38;6.18;;;;;;;17.13;54.25;99578.63;5032078;28;20025;-77
2023/05/06 06:26:08;;;;;;;8.82;6.50;;;;;;;16.88;54.07;99519.94;5031889;28;20526;-76
2023/05/06 06:28:33;;;;;;;6.95;6.00;;;;;;;17.43;54.09;99610.75;5032017;28;20049;-77
2023/05/06 06:30:58;;;;;;;8.02;6.57;;;;;;;17.32;53.93;99572.25;5030308;28;20465;-76
2023/05/06 06:33:24;;;;;;;7.90;5.70;;;;;;;17.37;53.82;99567.09;5031876;28;20017;-76
2023/05/06 06:35:49;;;;;;;9.65;6.70;;;;;;;17.44;53.88;99570.50;5030198;28;20075;-76
2023/05/06 06:38:15;;;;;;;7.90;6.90;;;;;;;17.25;54.02;99528.81;5031502;28;20018;-76
2023/05/06 06:40:40;;;;;;;7.45;6.60;;;;;;;17.57;53.74;99566.88;5031667;28;20481;-77
2023/05/06 06:43:05;;;;;;;9.02;6.72;;;;;;;17.20;53.89;99518.00;5030297;28;20076;-76
2023/05/06 06:45:31;;;;;;;7.80;6.43;;;;;;;17.80;53.66;99606.28;5031500;28;20454;-77
2023/05/06 06:47:57;;;;;;;8.20;7.03;;;;;;;17.85;53.67;99600.28;5031377;28;20084;-76
2023/05/06 06:50:22;;;;;;;9.80;7.05;;;;;;;17.92;53.39;99603.69;5031375;28;20034;-76
2023/05/06 06:52:47;;;;;;;8.20;5.95;;;;;;;18.00;53.11;99604.22;5030691;28;20028;-76
2023/05/06 06:55:13;;;;;;;6.70;5.70;;;;;;;17.94;52.99;99582.91;5031519;28;20487;-76
2023/05/06 06:57:38;;;;;;;6.10;5.50;;;;;;;18.16;52.86;99612.66;5031450;28;20025;-76
2023/05/06 07:00:04;;;;;;;7.93;6.40;;;;;;;18.14;52.72;99588.81;5031415;28;20060;-76
2023/05/06 07:02:30;;;;;;;7.80;5.70;;;;;;;17.96;52.38;99556.78;5031273;28;20032;-76
2023/05/06 07:04:55;;;;;;;7.43;6.57;;;;;;;18.38;52.14;99624.47;5031175;28;20546;-76
2023/05/06 07:07:21;;;;;;;7.93;6.45;;;;;;;18.36;52.06;99594.47;5031241;28;20021;-77
2023/05/06 07:09:46;;;;;;;6.05;5.28;;;;;;;18.40;52.12;99595.66;5029590;28;20411;-76
2023/05/06 07:12:11;;;;;;;6.38;5.72;;;;;;;18.10;52.11;99555.56;5029635;28;20025;-76
2023/05/06 07:14:37;;;;;;;8.38;5.68;;;;;;;18.07;51.99;99534.66;5031253;28;20049;-77
2023/05/06 07:17:03;;;;;;;8.25;6.45;;;;;;;18.58;52.07;99605.47;5031203;28;20462;-77
2023/05/06 07:19:30;;;;;;;6.78;6.13;;;;;;;18.58;52.06;99589.44;5031088;28;20025;-76
2023/05/06 07:21:56;;;;;;;7.85;5.93;;;;;;;18.47;51.72;99566.16;5031143;28;20128;-76
2023/05/06 07:24:21;;;;;;;6.53;5.30;;;;;;;18.69;51.68;99588.69;5030927;28;20502;-78
2023/05/06 07:26:46;;;;;;;9.23;6.40;;;;;;;18.53;51.72;99565.22;5029306;28;20501;-76
2023/05/06 07:29:12;;;;;;;8.23;6.40;;;;;;;18.72;51.35;99583.72;5030811;28;20029;-76
2023/05/06 07:31:37;;;;;;;6.90;5.90;;;;;;;18.34;51.53;99527.06;5030905;28;20034;-77
2023/05/06 07:34:03;;;;;;;7.88;5.70;;;;;;;18.63;51.67;99577.06;5030929;28;20039;-78
2023/05/06 07:36:29;;;;;;;8.07;6.60;;;;;;;18.77;51.56;99588.38;5031001;28;20059;-76
2023/05/06 07:38:56;;;;;;;8.48;6.00;;;;;;;18.57;51.53;99543.16;5029536;28;20496;-76
2023/05/06 07:41:21;;;;;;;7.15;5.80;;;;;;;18.68;51.33;99537.06;5030650;28;20048;-75
2023/05/06 07:43:46;;;;;;;7.10;5.55;;;;;;;18.79;50.78;99550.69;5030485;28;20482;-75
2023/05/06 07:46:12;;;;;;;6.90;6.15;;;;;;;18.79;50.51;99537.31;5030751;28;20029;-76
2023/05/06 07:48:37;;;;;;;6.43;5.65;;;;;;;18.88;50.70;99570.69;5030716;28;20032;-76
2023/05/06 07:51:03;;;;;;;8.52;5.75;;;;;;;18.93;50.73;99562.78;5031151;28;20055;-77
2023/05/06 07:53:28;;;;;;;6.65;5.95;;;;;;;19.20;50.46;99592.59;5029664;28;20052;-76
2023/05/06 07:56:00;;;;;;;6.03;5.43;;;;;;;19.39;50.37;99598.66;5032830;28;20068;-76
2023/05/06 07:58:29;;;;;;;7.40;5.68;;;;;;;19.45;50.28;99606.56;5031283;28;20091;-77
2023/05/06 08:00:55;;;;;;;5.95;5.38;;;;;;;19.44;50.32;99610.31;5030680;28;20025;-76
2023/05/06 08:03:20;;;;;;;8.27;6.85;;;;;;;19.39;50.26;99572.69;5030834;28;20029;-77
2023/05/06 08:05:46;;;;;;;8.25;6.20;;;;;;;19.68;50.09;99598.53;5031969;28;20414;-76
2023/05/06 08:08:11;;;;;;;8.25;5.78;;;;;;;19.70;49.90;99592.94;5034194;28;20025;-77
2023/05/06 08:10:36;;;;;;;7.03;5.60;;;;;;;19.95;49.70;99598.00;5034070;28;20022;-76
2023/05/06 08:13:02;;;;;;;6.05;5.45;;;;;;;20.09;49.11;99593.22;5032931;28;20490;-76
2023/05/06 08:15:27;;;;;;;9.95;5.97;;;;;;;20.18;48.98;99595.28;5034087;28;20027;-76
2023/05/06 08:17:54;;;;;;;6.05;4.93;;;;;;;20.26;48.17;99605.63;5033896;28;20482;-76
2023/05/06 08:20:20;;;;;;;6.43;4.78;;;;;;;20.22;47.62;99584.88;5033727;28;20021;-77
2023/05/06 08:22:45;;;;;;;4.63;3.60;;;;;;;20.07;46.33;99531.00;5033832;28;20488;-76
2023/05/06 08:25:10;;;;;;;7.43;3.60;;;;;;;20.45;44.88;99576.75;5033862;28;20024;-77
2023/05/06 08:27:36;;;;;;;4.90;3.72;;;;;;;20.29;44.15;99538.09;5033626;28;20552;-75
2023/05/06 08:30:01;;;;;;;7.38;3.70;;;;;;;20.39;43.56;99533.97;5033552;28;20018;-76
2023/05/06 08:32:26;;;;;;;6.38;3.28;;;;;;;20.57;43.28;99544.50;5033470;28;20624;-76
2023/05/06 08:34:52;;;;;;;4.95;3.65;;;;;;;21.08;42.79;99590.97;5033493;28;20025;-77
2023/05/06 08:37:17;;;;;;;6.22;3.65;;;;;;;20.78;42.39;99510.75;5033621;28;20391;-76
2023/05/06 08:39:44;;;;;;;8.63;4.00;;;;;;;21.40;42.27;99583.94;5033741;28;20100;-77
2023/05/06 08:42:10;;;;;;;4.35;2.97;;;;;;;21.33;41.88;99552.94;5033637;28;20025;-76
2023/05/06 08:44:37;;;;;;;6.43;3.35;;;;;;;21.66;41.43;99587.81;5033442;28;20025;-75
2023/05/06 08:47:02;;;;;;;6.35;3.35;;;;;;;21.58;41.21;99574.00;5033512;28;20112;-76
2023/05/06 08:49:28;;;;;;;4.85;3.00;;;;;;;21.34;40.89;99541.97;5033321;28;20104;-76
2023/05/06 08:51:54;;;;;;;8.00;3.38;;;;;;;21.19;40.53;99544.41;5033344;28;20021;-76
2023/05/06 08:54:23;;;;;;;7.18;3.08;;;;;;;21.74;39.93;99591.94;5033091;28;20030;-77
2023/05/06 08:56:52;;;;;;;6.00;2.92;;;;;;;21.88;39.95;99591.31;5033254;28;20018;-76
2023/05/06 08:59:24;;;;;;;4.55;3.25;;;;;;;21.79;38.48;99544.44;5033124;28;20431;-76
2023/05/06 09:01:51;;;;;;;4.10;2.75;;;;;;;22.06;39.00;99554.44;5033166;28;20033;-76
2023/05/06 09:04:17;;;;;;;5.38;3.03;;;;;;;22.26;38.70;99557.34;5033068;28;20026;-76
2023/05/06 09:06:42;;;;;;;6.68;3.40;;;;;;;22.30;38.48;99545.03;5033069;28;20029;-77
2023/05/06 09:09:08;;;;;;;5.35;3.30;;;;;;;22.28;37.74;99506.78;5032807;28;20548;-74
2023/05/06 09:11:37;;;;;;;4.65;2.90;;;;;;;22.94;37.48;99579.22;5032936;28;20109;-76
2023/05/06 09:14:14;;;;;;;4.05;2.60;;;;;;;23.19;37.24;99581.31;5032868;28;20552;-77
2023/05/06 09:16:42;;;;;;;5.47;3.10;;;;;;;23.27;37.26;99580.84;5031047;28;20037;-76
2023/05/06 09:19:08;;;;;;;6.18;3.10;;;;;;;22.82;36.96;99539.84;5032833;28;20026;-75
2023/05/06 09:21:35;;;;;;;4.47;2.53;;;;;;;23.28;36.37;99583.28;5032765;28;20032;-76
2023/05/06 09:24:02;;;;;;;4.45;2.85;;;;;;;23.59;36.12;99581.56;5032792;28;20064;-76
2023/05/06 09:26:29;;;;;;;5.45;2.83;;;;;;;23.07;36.17;99530.34;5032547;28;20391;-76
2023/05/06 09:28:56;;;;;;;4.45;2.90;;;;;;;22.98;36.57;99585.72;5031070;28;20042;-76
2023/05/06 09:31:21;;;;;;;5.15;3.05;;;;;;;22.78;36.58;99559.44;5032971;28;20080;-77
2023/05/06 09:33:47;;;;;;;5.47;2.75;;;;;;;22.93;36.51;99551.50;5031366;28;20026;-76
2023/05/06 09:36:13;;;;;;;5.82;2.85;;;;;;;23.35;36.06;99565.00;5032600;28;20759;-77
2023/05/06 09:38:41;;;;;;;5.93;3.22;;;;;;;23.73;35.30;99573.81;5032691;28;20055;-76
2023/05/06 09:41:07;;;;;;;4.47;2.75;;;;;;;23.85;35.33;99576.31;5032479;28;20021;-75
2023/05/06 09:43:33;;;;;;;3.53;2.67;;;;;;;23.77;35.38;99558.75;5031169;28;20481;-75
2023/05/06 09:46:02;;;;;;;6.38;2.47;;;;;;;23.07;35.62;99498.84;5032253;28;20037;-76
2023/05/06 09:48:29;;;;;;;3.97;2.58;;;;;;;22.90;35.75;99537.75;5032068;28;20033;-75
2023/05/06 09:50:55;;;;;;;6.30;2.80;;;;;;;22.98;36.06;99566.88;5032110;28;20030;-76
2023/05/06 09:53:22;;;;;;;4.15;2.50;;;;;;;22.88;36.09;99561.41;5032772;28;20035;-76
2023/05/06 09:55:48;;;;;;;6.18;3.53;;;;;;;22.45;36.23;99514.75;5051933;28;20409;-76
2023/05/06 09:58:15;;;;;;;5.20;3.38;;;;;;;22.69;36.12;99547.50;5051964;28;20025;-76
2023/05/06 10:00:42;;;;;;;5.13;3.38;;;;;;;22.61;36.07;99524.56;5051955;28;20021;-76
2023/05/06 10:03:10;;;;;;;6.88;3.30;;;;;;;23.23;35.69;99574.34;5051862;28;20109;-74
2023/05/06 10:05:36;;;;;;;7.13;3.53;;;;;;;22.66;35.35;99473.47;5052176;28;20017;-76
2023/05/06 10:08:06;;;;;;;6.22;3.78;;;;;;;22.96;35.41;99515.97;5052272;28;20035;-74
2023/05/06 10:10:33;;;;;;;5.15;2.80;;;;;;;23.07;35.03;99503.41;5051990;28;20025;-74
2023/05/06 10:13:02;;;;;;;5.05;3.63;;;;;;;23.63;34.39;99569.19;5051876;28;20108;-76
2023/05/06 10:15:28;;;;;;;6.28;2.92;;;;;;;23.03;34.52;99480.75;5051709;28;20417;-77
2023/05/06 10:17:55;;;;;;;3.40;2.47;;;;;;;23.25;34.53;99527.22;5051621;28;20032;-75
2023/05/06 10:20:23;;;;;;;5.75;3.10;;;;;;;23.37;34.52;99519.72;5051615;28;20017;-77
2023/05/06 10:23:00;;;;;;;7.60;2.60;;;;;;;23.78;34.29;99573.84;5051773;28;20523;-76
2023/05/06 10:25:31;;;;;;;6.05;2.55;;;;;;;23.58;34.28;99565.66;5051694;28;20079;-76
2023/05/06 10:27:57;;;;;;;5.53;2.80;;;;;;;23.07;34.52;99536.53;5050469;28;20049;-75
2023/05/06 10:30:24;;;;;;;3.47;3.03;;;;;;;22.99;35.26;99568.50;5051489;28;20086;-76
2023/05/06 10:32:55;;;;;;;3.92;3.08;;;;;;;22.82;35.42;99565.94;5051532;28;20098;-76
2023/05/06 10:35:34;;;;;;;8.85;2.72;;;;;;;22.66;36.19;99567.69;5051409;28;20100;-76
2023/05/06 10:38:03;;;;;;;6.57;3.00;;;;;;;22.29;36.37;99521.03;5051507;28;20025;-76
2023/05/06 10:40:28;;;;;;;4.38;3.00;;;;;;;22.08;36.47;99520.84;5051014;28;20075;-76
2023/05/06 10:43:23;;;;;;;6.90;2.53;;;;;;;22.20;36.60;99544.91;5051031;28;20037;-76
2023/05/06 10:46:09;;;;;;;4.45;2.60;;;;;;;22.08;36.42;99528.91;5051024;28;20055;-77
2023/05/06 10:48:35;;;;;;;3.97;2.78;;;;;;;22.06;36.91;99530.22;5051173;28;20044;-76
2023/05/06 10:51:20;;;;;;;6.45;3.20;;;;;;;22.35;36.74;99574.66;5051551;28;20059;-76
2023/05/06 10:54:17;;;;;;;2.58;2.38;;;;;;;22.28;35.76;99540.94;5051286;28;20021;-76
2023/05/06 10:56:48;;;;;;;5.43;2.63;;;;;;;22.46;36.60;99567.50;5050887;28;20028;-77
2023/05/06 10:59:15;;;;;;;5.00;2.80;;;;;;;22.31;36.79;99562.78;5049838;28;20498;-76
2023/05/06 11:01:43;;;;;;;5.20;3.15;;;;;;;22.28;37.07;99567.84;5049603;28;20066;-74
2023/05/06 11:04:14;;;;;;;5.10;3.03;;;;;;;22.29;37.23;99572.97;5051028;28;20029;-76
2023/05/06 11:06:41;;;;;;;5.65;3.30;;;;;;;22.23;37.33;99565.09;5051377;28;20516;-73
2023/05/06 11:09:15;;;;;;;3.78;3.08;;;;;;;21.89;37.38;99530.28;5051216;28;20468;-76
2023/05/06 11:11:49;;;;;;;7.22;3.40;;;;;;;22.14;37.45;99576.31;5051582;28;20024;-76
2023/05/06 11:14:28;;;;;;;5.55;2.50;;;;;;;22.07;37.49;99562.25;5051508;28;20062;-77
2023/05/06 11:16:56;;;;;;;5.00;2.70;;;;;;;21.98;37.50;99530.66;5051104;28;20108;-75
2023/05/06 11:19:26;;;;;;;7.72;3.65;;;;;;;22.43;36.67;99535.72;5051740;28;20100;-75
2023/05/06 11:21:54;;;;;;;6.53;3.15;;;;;;;23.09;36.63;99557.81;5052779;28;20063;-76
2023/05/06 11:24:25;;;;;;;4.70;2.80;;;;;;;23.75;35.40;99566.28;5052170;28;20041;-76
2023/05/06 11:26:51;;;;;;;4.70;3.00;;;;;;;23.61;34.68;99449.25;5050966;28;20029;-75
2023/05/06 11:29:17;;;;;;;4.28;2.88;;;;;;;24.90;34.02;99574.13;5051277;28;20031;-76
2023/05/06 11:31:44;;;;;;;5.57;2.97;;;;;;;24.57;33.70;99559.25;5051603;28;20057;-76